Stephen L. — WDE7070 — position and weather

sailwx.info

Track history (hours):
 
Tides and Currents Weather Stations Pressure Air Temp Water Temp Dewpoint Dewpoint Depression Visibility Wind Speed Wind Dir Waves Ship Positions

Stephen L.

Owner: TRIPLE S MARINE, LLC, MORGAN CITY, LA. More information available from US FCC via Universal Licensing System and Coast Guard Vessel Documentation Center.

Last reported at 2016-Aug-24 11:30 UTC. Time now 2016-Aug-25 13:14 UTC.
Position N 29°32' W 090°49'.

Length 20 m.

Type: Ship. MMSI: 367388580.

Date/timePositionNaut miles runAvg speedWind from/ knotsBaromVisibWave heightAir tempDewpointWater temp
2016-Aug-24 11:30N 29°32' W 090°49'5 5.4
2016-Aug-24 10:33N 29°34' W 090°43'5 5.0
2016-Aug-24 09:33N 29°29' W 090°43'  
2016-Aug-20 17:33N 29°29' W 090°43'5 5.2
2016-Aug-20 16:33N 29°34' W 090°43'5 4.6
2016-Aug-20 15:29N 29°32' W 090°48'68 3.6
2016-Aug-19 20:33N 29°49' W 092°04'5 4.6
2016-Aug-19 19:33N 29°47' W 092°09'0 0.2
2016-Aug-19 18:34N 29°48' W 092°09'2 1.6
2016-Aug-19 17:33N 29°47' W 092°10'0 0.2
2016-Aug-19 16:33N 29°47' W 092°10'3 3.2
2016-Aug-19 15:33N 29°45' W 092°07'3 0.3
2016-Aug-19 04:33N 29°42' W 092°05'6 6.1
2016-Aug-19 03:33N 29°47' W 092°10'0 0.4
2016-Aug-19 02:33N 29°47' W 092°10'4 3.7
2016-Aug-19 01:33N 29°45' W 092°07'6 6.5
2016-Aug-19 00:33N 29°39' W 092°02'  
Track history (hours):
 
Tides and Currents Weather Stations Pressure Air Temp Water Temp Dewpoint Dewpoint Depression Visibility Wind Speed Wind Dir Waves Ship Positions

Stephen L.

Owner: TRIPLE S MARINE, LLC, MORGAN CITY, LA. More information available from US FCC via Universal Licensing System and Coast Guard Vessel Documentation Center.

Last reported at 2016-Aug-24 11:30 UTC. Time now 2016-Aug-25 13:14 UTC.
Position N 29°32' W 090°49'.

Length 20 m.

Type: Ship. MMSI: 367388580.

Date/timePositionNaut miles runAvg speedWind from/ knotsBaromVisibWave heightAir tempDewpointWater temp
2016-Aug-24 11:30N 29°32' W 090°49'5 5.4
2016-Aug-24 10:33N 29°34' W 090°43'5 5.0
2016-Aug-24 09:33N 29°29' W 090°43'  
2016-Aug-20 17:33N 29°29' W 090°43'5 5.2
2016-Aug-20 16:33N 29°34' W 090°43'5 4.6
2016-Aug-20 15:29N 29°32' W 090°48'68 3.6
2016-Aug-19 20:33N 29°49' W 092°04'5 4.6
2016-Aug-19 19:33N 29°47' W 092°09'0 0.2
2016-Aug-19 18:34N 29°48' W 092°09'2 1.6
2016-Aug-19 17:33N 29°47' W 092°10'0 0.2
2016-Aug-19 16:33N 29°47' W 092°10'3 3.2
2016-Aug-19 15:33N 29°45' W 092°07'3 0.3
2016-Aug-19 04:33N 29°42' W 092°05'6 6.1
2016-Aug-19 03:33N 29°47' W 092°10'0 0.4
2016-Aug-19 02:33N 29°47' W 092°10'4 3.7
2016-Aug-19 01:33N 29°45' W 092°07'6 6.5
2016-Aug-19 00:33N 29°39' W 092°02'  

Dump ship's entire track history